aviador You're here:

KAVL Decoded Metar

ASHEVILLE in NC, USA
Report Time2018-05-25 08:54:00
UTC Time2018-05-25 09:03:24
Flight Rules mvfr MVFR
WindCalm
Visibility9999 m
Phenomena:N/A
Clouds:Overcast 017 Hf
Expected CloudBase > 800 ft AGL from Temp-Dew spread
Ceiling1,700 ft
Temp20°C (ISA +9)
Dew Point18°C (88% RH)
QNH1021 hPa
Density Alt3,304 ft
Elevation2,198 ft
Report Wrong Elevation
Raw Report
KAVL 250854Z AUTO 00000KT 10SM OVC017 20/18 A3016 RMK AO2 SLP186
T02000178 56007=

Extra information for KAVL:More info

Metar Taf Metar & Taf Last 4 Metars F.Rules Stats Wind Profile Meteogram Temp Stats Airport Information Weather charts Add Link Nearby VenuesMetar ALERT Operation Metar Decoded Social comments

AIRNAV info for KAVL